sensor_id;sensor_type;location;lat;lon;timestamp;P1;durP1;ratioP1;P2;durP2;ratioP2
56239;SDS011;42154;51.992;5.896;2023-07-02T00:01:32;7.07;;;3.55;;
56239;SDS011;42154;51.992;5.896;2023-07-02T00:03:58;8.65;;;2.92;;
56239;SDS011;42154;51.992;5.896;2023-07-02T00:06:24;6.60;;;3.55;;
56239;SDS011;42154;51.992;5.896;2023-07-02T00:08:50;8.95;;;3.70;;
56239;SDS011;42154;51.992;5.896;2023-07-02T00:11:16;11.45;;;4.32;;
56239;SDS011;42154;51.992;5.896;2023-07-02T00:13:41;9.32;;;3.92;;
56239;SDS011;42154;51.992;5.896;2023-07-02T00:16:07;9.65;;;3.72;;
56239;SDS011;42154;51.992;5.896;2023-07-02T00:18:33;7.82;;;3.42;;
56239;SDS011;42154;51.992;5.896;2023-07-02T00:21:00;11.40;;;3.90;;
56239;SDS011;42154;51.992;5.896;2023-07-02T00:23:29;7.93;;;4.45;;
56239;SDS011;42154;51.992;5.896;2023-07-02T00:25:56;10.25;;;5.07;;
56239;SDS011;42154;51.992;5.896;2023-07-02T00:28:22;9.80;;;4.63;;
56239;SDS011;42154;51.992;5.896;2023-07-02T00:30:48;5.10;;;3.50;;
56239;SDS011;42154;51.992;5.896;2023-07-02T00:33:13;11.35;;;5.10;;
56239;SDS011;42154;51.992;5.896;2023-07-02T00:35:40;12.57;;;5.05;;
56239;SDS011;42154;51.992;5.896;2023-07-02T00:38:06;15.45;;;6.20;;
56239;SDS011;42154;51.992;5.896;2023-07-02T00:40:31;8.65;;;4.65;;
56239;SDS011;42154;51.992;5.896;2023-07-02T00:42:57;13.40;;;6.00;;
56239;SDS011;42154;51.992;5.896;2023-07-02T00:45:23;12.82;;;6.30;;
56239;SDS011;42154;51.992;5.896;2023-07-02T00:47:51;13.02;;;6.57;;
56239;SDS011;42154;51.992;5.896;2023-07-02T00:50:20;9.10;;;5.72;;
56239;SDS011;42154;51.992;5.896;2023-07-02T00:52:48;12.75;;;6.25;;
56239;SDS011;42154;51.992;5.896;2023-07-02T00:55:14;10.60;;;6.07;;
56239;SDS011;42154;51.992;5.896;2023-07-02T00:57:41;10.23;;;5.20;;
56239;SDS011;42154;51.992;5.896;2023-07-02T01:02:38;10.73;;;5.40;;
56239;SDS011;42154;51.992;5.896;2023-07-02T01:07:46;9.55;;;5.80;;
56239;SDS011;42154;51.992;5.896;2023-07-02T01:10:12;12.38;;;6.40;;
56239;SDS011;42154;51.992;5.896;2023-07-02T01:12:38;14.23;;;6.63;;
56239;SDS011;42154;51.992;5.896;2023-07-02T01:15:05;13.60;;;6.70;;
56239;SDS011;42154;51.992;5.896;2023-07-02T01:17:32;12.38;;;5.55;;
56239;SDS011;42154;51.992;5.896;2023-07-02T01:20:07;9.88;;;4.90;;
56239;SDS011;42154;51.992;5.896;2023-07-02T01:22:35;8.23;;;4.80;;
56239;SDS011;42154;51.992;5.896;2023-07-02T01:25:01;9.45;;;5.05;;
56239;SDS011;42154;51.992;5.896;2023-07-02T01:27:28;8.88;;;4.68;;
56239;SDS011;42154;51.992;5.896;2023-07-02T01:29:54;11.85;;;5.60;;
56239;SDS011;42154;51.992;5.896;2023-07-02T01:32:20;9.65;;;5.60;;
56239;SDS011;42154;51.992;5.896;2023-07-02T01:34:49;8.80;;;4.63;;
56239;SDS011;42154;51.992;5.896;2023-07-02T01:37:18;10.18;;;5.22;;
56239;SDS011;42154;51.992;5.896;2023-07-02T01:39:44;10.27;;;5.15;;
56239;SDS011;42154;51.992;5.896;2023-07-02T01:44:37;10.82;;;4.60;;
56239;SDS011;42154;51.992;5.896;2023-07-02T01:47:04;11.10;;;5.68;;
56239;SDS011;42154;51.992;5.896;2023-07-02T01:49:30;8.73;;;5.25;;
56239;SDS011;42154;51.992;5.896;2023-07-02T01:51:57;9.48;;;4.93;;
56239;SDS011;42154;51.992;5.896;2023-07-02T01:54:24;12.10;;;5.28;;
56239;SDS011;42154;51.992;5.896;2023-07-02T01:56:54;10.90;;;5.40;;
56239;SDS011;42154;51.992;5.896;2023-07-02T01:59:21;14.88;;;6.50;;
56239;SDS011;42154;51.992;5.896;2023-07-02T02:01:47;10.98;;;5.50;;
56239;SDS011;42154;51.992;5.896;2023-07-02T02:04:13;11.25;;;5.47;;
56239;SDS011;42154;51.992;5.896;2023-07-02T02:06:39;10.45;;;5.18;;
56239;SDS011;42154;51.992;5.896;2023-07-02T02:09:05;12.48;;;5.75;;
56239;SDS011;42154;51.992;5.896;2023-07-02T02:11:32;10.82;;;5.07;;
56239;SDS011;42154;51.992;5.896;2023-07-02T02:13:59;13.57;;;5.32;;
56239;SDS011;42154;51.992;5.896;2023-07-02T02:16:26;12.52;;;5.88;;
56239;SDS011;42154;51.992;5.896;2023-07-02T02:18:53;10.68;;;5.95;;
56239;SDS011;42154;51.992;5.896;2023-07-02T02:21:20;11.93;;;6.20;;
56239;SDS011;42154;51.992;5.896;2023-07-02T02:23:46;13.38;;;6.78;;
56239;SDS011;42154;51.992;5.896;2023-07-02T02:26:12;11.00;;;5.15;;
56239;SDS011;42154;51.992;5.896;2023-07-02T02:28:39;16.88;;;6.03;;
56239;SDS011;42154;51.992;5.896;2023-07-02T02:31:04;16.52;;;6.85;;
56239;SDS011;42154;51.992;5.896;2023-07-02T02:33:31;13.07;;;6.82;;
56239;SDS011;42154;51.992;5.896;2023-07-02T02:35:58;16.08;;;7.05;;
56239;SDS011;42154;51.992;5.896;2023-07-02T02:38:24;12.80;;;6.28;;
56239;SDS011;42154;51.992;5.896;2023-07-02T02:40:50;11.52;;;5.80;;
56239;SDS011;42154;51.992;5.896;2023-07-02T02:43:18;13.85;;;6.30;;
56239;SDS011;42154;51.992;5.896;2023-07-02T02:45:46;11.20;;;5.85;;
56239;SDS011;42154;51.992;5.896;2023-07-02T02:48:12;10.43;;;6.25;;
56239;SDS011;42154;51.992;5.896;2023-07-02T02:50:38;12.15;;;7.35;;
56239;SDS011;42154;51.992;5.896;2023-07-02T02:53:09;12.70;;;6.43;;
56239;SDS011;42154;51.992;5.896;2023-07-02T02:55:35;13.23;;;6.43;;
56239;SDS011;42154;51.992;5.896;2023-07-02T02:58:02;10.80;;;5.78;;
56239;SDS011;42154;51.992;5.896;2023-07-02T03:00:28;12.80;;;6.40;;
56239;SDS011;42154;51.992;5.896;2023-07-02T03:02:54;14.60;;;6.22;;
56239;SDS011;42154;51.992;5.896;2023-07-02T03:05:21;12.02;;;6.07;;
56239;SDS011;42154;51.992;5.896;2023-07-02T03:07:47;13.90;;;6.43;;
56239;SDS011;42154;51.992;5.896;2023-07-02T03:10:14;13.65;;;6.70;;
56239;SDS011;42154;51.992;5.896;2023-07-02T03:12:40;10.88;;;6.40;;
56239;SDS011;42154;51.992;5.896;2023-07-02T03:15:06;9.63;;;5.95;;
56239;SDS011;42154;51.992;5.896;2023-07-02T03:17:33;12.35;;;6.20;;
56239;SDS011;42154;51.992;5.896;2023-07-02T03:19:59;15.70;;;6.60;;
56239;SDS011;42154;51.992;5.896;2023-07-02T03:22:25;10.32;;;5.50;;
56239;SDS011;42154;51.992;5.896;2023-07-02T03:24:50;10.48;;;5.93;;
56239;SDS011;42154;51.992;5.896;2023-07-02T03:27:16;11.85;;;6.25;;
56239;SDS011;42154;51.992;5.896;2023-07-02T03:29:42;11.30;;;6.18;;
56239;SDS011;42154;51.992;5.896;2023-07-02T03:32:07;10.75;;;5.60;;
56239;SDS011;42154;51.992;5.896;2023-07-02T03:34:33;10.98;;;6.47;;
56239;SDS011;42154;51.992;5.896;2023-07-02T03:36:59;13.57;;;5.70;;
56239;SDS011;42154;51.992;5.896;2023-07-02T03:39:25;11.77;;;5.63;;
56239;SDS011;42154;51.992;5.896;2023-07-02T03:41:50;15.40;;;6.30;;
56239;SDS011;42154;51.992;5.896;2023-07-02T03:44:17;13.75;;;6.53;;
56239;SDS011;42154;51.992;5.896;2023-07-02T03:46:44;13.15;;;6.68;;
56239;SDS011;42154;51.992;5.896;2023-07-02T03:49:10;11.45;;;5.72;;
56239;SDS011;42154;51.992;5.896;2023-07-02T03:51:36;15.30;;;6.78;;
56239;SDS011;42154;51.992;5.896;2023-07-02T03:54:02;13.45;;;6.68;;
56239;SDS011;42154;51.992;5.896;2023-07-02T03:56:27;13.50;;;6.05;;
56239;SDS011;42154;51.992;5.896;2023-07-02T03:58:53;18.45;;;7.38;;
56239;SDS011;42154;51.992;5.896;2023-07-02T04:01:19;14.20;;;6.60;;
56239;SDS011;42154;51.992;5.896;2023-07-02T04:03:48;13.07;;;5.88;;
56239;SDS011;42154;51.992;5.896;2023-07-02T04:06:15;14.52;;;6.40;;
56239;SDS011;42154;51.992;5.896;2023-07-02T04:08:41;17.35;;;6.93;;
56239;SDS011;42154;51.992;5.896;2023-07-02T04:11:08;14.18;;;6.38;;
56239;SDS011;42154;51.992;5.896;2023-07-02T04:13:33;14.23;;;6.20;;
56239;SDS011;42154;51.992;5.896;2023-07-02T04:15:59;14.77;;;7.20;;
56239;SDS011;42154;51.992;5.896;2023-07-02T04:18:25;10.77;;;6.45;;
56239;SDS011;42154;51.992;5.896;2023-07-02T04:20:51;13.48;;;6.80;;
56239;SDS011;42154;51.992;5.896;2023-07-02T04:23:17;14.57;;;6.88;;
56239;SDS011;42154;51.992;5.896;2023-07-02T04:25:42;18.98;;;7.82;;
56239;SDS011;42154;51.992;5.896;2023-07-02T04:28:08;15.50;;;6.90;;
56239;SDS011;42154;51.992;5.896;2023-07-02T04:30:34;15.93;;;6.75;;
56239;SDS011;42154;51.992;5.896;2023-07-02T04:33:00;12.73;;;6.18;;
56239;SDS011;42154;51.992;5.896;2023-07-02T04:35:26;13.68;;;7.18;;
56239;SDS011;42154;51.992;5.896;2023-07-02T04:37:51;21.70;;;7.57;;
56239;SDS011;42154;51.992;5.896;2023-07-02T04:40:17;14.02;;;6.00;;
56239;SDS011;42154;51.992;5.896;2023-07-02T04:42:43;16.10;;;7.05;;
56239;SDS011;42154;51.992;5.896;2023-07-02T04:45:12;17.88;;;7.50;;
56239;SDS011;42154;51.992;5.896;2023-07-02T04:47:43;15.30;;;7.05;;
56239;SDS011;42154;51.992;5.896;2023-07-02T04:50:10;15.32;;;7.03;;
56239;SDS011;42154;51.992;5.896;2023-07-02T04:52:37;18.25;;;7.50;;
56239;SDS011;42154;51.992;5.896;2023-07-02T04:55:03;21.95;;;8.63;;
56239;SDS011;42154;51.992;5.896;2023-07-02T04:57:30;17.35;;;7.95;;
56239;SDS011;42154;51.992;5.896;2023-07-02T04:59:55;16.67;;;7.10;;
56239;SDS011;42154;51.992;5.896;2023-07-02T05:02:22;15.38;;;6.90;;
56239;SDS011;42154;51.992;5.896;2023-07-02T05:04:47;20.65;;;8.45;;
56239;SDS011;42154;51.992;5.896;2023-07-02T05:07:13;16.95;;;7.03;;
56239;SDS011;42154;51.992;5.896;2023-07-02T05:09:39;15.43;;;6.57;;
56239;SDS011;42154;51.992;5.896;2023-07-02T05:12:04;17.25;;;6.15;;
56239;SDS011;42154;51.992;5.896;2023-07-02T05:14:30;15.85;;;7.10;;
56239;SDS011;42154;51.992;5.896;2023-07-02T05:16:56;20.40;;;7.88;;
56239;SDS011;42154;51.992;5.896;2023-07-02T05:19:22;21.42;;;8.00;;
56239;SDS011;42154;51.992;5.896;2023-07-02T05:21:48;14.07;;;6.93;;
56239;SDS011;42154;51.992;5.896;2023-07-02T05:24:13;17.65;;;7.85;;
56239;SDS011;42154;51.992;5.896;2023-07-02T05:26:39;20.42;;;9.07;;
56239;SDS011;42154;51.992;5.896;2023-07-02T05:29:05;16.95;;;7.30;;
56239;SDS011;42154;51.992;5.896;2023-07-02T05:31:31;16.77;;;6.97;;
56239;SDS011;42154;51.992;5.896;2023-07-02T05:33:57;15.90;;;6.88;;
56239;SDS011;42154;51.992;5.896;2023-07-02T05:36:22;17.52;;;8.30;;
56239;SDS011;42154;51.992;5.896;2023-07-02T05:38:48;12.25;;;6.20;;
56239;SDS011;42154;51.992;5.896;2023-07-02T05:41:20;17.83;;;6.90;;
56239;SDS011;42154;51.992;5.896;2023-07-02T05:43:46;16.95;;;7.70;;
56239;SDS011;42154;51.992;5.896;2023-07-02T05:46:12;17.05;;;7.10;;
56239;SDS011;42154;51.992;5.896;2023-07-02T05:48:39;17.13;;;8.40;;
56239;SDS011;42154;51.992;5.896;2023-07-02T05:51:06;20.75;;;7.82;;
56239;SDS011;42154;51.992;5.896;2023-07-02T05:53:32;16.98;;;7.10;;
56239;SDS011;42154;51.992;5.896;2023-07-02T05:55:58;17.90;;;7.03;;
56239;SDS011;42154;51.992;5.896;2023-07-02T05:58:23;17.48;;;6.80;;
56239;SDS011;42154;51.992;5.896;2023-07-02T06:00:49;18.13;;;6.75;;
56239;SDS011;42154;51.992;5.896;2023-07-02T06:03:16;20.38;;;8.68;;
56239;SDS011;42154;51.992;5.896;2023-07-02T06:05:48;19.88;;;6.90;;
56239;SDS011;42154;51.992;5.896;2023-07-02T06:08:15;16.98;;;7.55;;
56239;SDS011;42154;51.992;5.896;2023-07-02T06:10:41;16.13;;;6.82;;
56239;SDS011;42154;51.992;5.896;2023-07-02T06:13:11;18.57;;;7.40;;
56239;SDS011;42154;51.992;5.896;2023-07-02T06:15:36;15.20;;;6.50;;
56239;SDS011;42154;51.992;5.896;2023-07-02T06:18:02;17.60;;;7.93;;
56239;SDS011;42154;51.992;5.896;2023-07-02T06:20:28;19.38;;;7.35;;
56239;SDS011;42154;51.992;5.896;2023-07-02T06:22:54;13.30;;;6.82;;
56239;SDS011;42154;51.992;5.896;2023-07-02T06:25:20;12.55;;;6.63;;
56239;SDS011;42154;51.992;5.896;2023-07-02T06:27:45;20.45;;;7.22;;
56239;SDS011;42154;51.992;5.896;2023-07-02T06:30:11;17.77;;;7.28;;
56239;SDS011;42154;51.992;5.896;2023-07-02T06:32:37;19.73;;;7.53;;
56239;SDS011;42154;51.992;5.896;2023-07-02T06:35:03;18.08;;;7.65;;
56239;SDS011;42154;51.992;5.896;2023-07-02T06:37:31;15.45;;;6.50;;
56239;SDS011;42154;51.992;5.896;2023-07-02T06:39:58;15.27;;;7.50;;
56239;SDS011;42154;51.992;5.896;2023-07-02T06:42:24;13.20;;;6.18;;
56239;SDS011;42154;51.992;5.896;2023-07-02T06:44:51;17.23;;;6.47;;
56239;SDS011;42154;51.992;5.896;2023-07-02T06:47:17;17.90;;;6.90;;
56239;SDS011;42154;51.992;5.896;2023-07-02T06:49:43;18.02;;;6.40;;
56239;SDS011;42154;51.992;5.896;2023-07-02T06:52:08;14.55;;;5.63;;
56239;SDS011;42154;51.992;5.896;2023-07-02T06:54:34;13.18;;;5.68;;
56239;SDS011;42154;51.992;5.896;2023-07-02T06:57:00;15.00;;;5.93;;
56239;SDS011;42154;51.992;5.896;2023-07-02T06:59:26;18.70;;;7.03;;
56239;SDS011;42154;51.992;5.896;2023-07-02T07:01:52;13.38;;;6.78;;
56239;SDS011;42154;51.992;5.896;2023-07-02T07:04:18;14.02;;;5.90;;
56239;SDS011;42154;51.992;5.896;2023-07-02T07:06:44;20.10;;;7.15;;
56239;SDS011;42154;51.992;5.896;2023-07-02T07:09:10;16.50;;;6.30;;
56239;SDS011;42154;51.992;5.896;2023-07-02T07:11:36;10.57;;;5.47;;
56239;SDS011;42154;51.992;5.896;2023-07-02T07:14:01;12.90;;;5.15;;
56239;SDS011;42154;51.992;5.896;2023-07-02T07:16:27;16.88;;;6.53;;
56239;SDS011;42154;51.992;5.896;2023-07-02T07:18:53;15.77;;;6.03;;
56239;SDS011;42154;51.992;5.896;2023-07-02T07:21:19;12.07;;;5.60;;
56239;SDS011;42154;51.992;5.896;2023-07-02T07:23:45;14.77;;;6.03;;
56239;SDS011;42154;51.992;5.896;2023-07-02T07:26:11;10.30;;;5.25;;
56239;SDS011;42154;51.992;5.896;2023-07-02T07:28:36;17.13;;;6.20;;
56239;SDS011;42154;51.992;5.896;2023-07-02T07:31:02;17.75;;;5.95;;
56239;SDS011;42154;51.992;5.896;2023-07-02T07:33:28;13.55;;;6.30;;
56239;SDS011;42154;51.992;5.896;2023-07-02T07:35:54;11.60;;;5.80;;
56239;SDS011;42154;51.992;5.896;2023-07-02T07:38:20;11.85;;;5.10;;
56239;SDS011;42154;51.992;5.896;2023-07-02T07:40:46;17.25;;;5.93;;
56239;SDS011;42154;51.992;5.896;2023-07-02T07:43:12;16.38;;;6.00;;
56239;SDS011;42154;51.992;5.896;2023-07-02T07:45:37;13.70;;;5.28;;
56239;SDS011;42154;51.992;5.896;2023-07-02T07:48:04;12.27;;;5.93;;
56239;SDS011;42154;51.992;5.896;2023-07-02T07:50:30;13.60;;;5.80;;
56239;SDS011;42154;51.992;5.896;2023-07-02T07:52:58;11.52;;;5.63;;
56239;SDS011;42154;51.992;5.896;2023-07-02T07:55:24;14.75;;;6.57;;
56239;SDS011;42154;51.992;5.896;2023-07-02T07:57:50;16.88;;;5.68;;
56239;SDS011;42154;51.992;5.896;2023-07-02T08:00:16;13.25;;;5.68;;
56239;SDS011;42154;51.992;5.896;2023-07-02T08:02:45;14.68;;;5.25;;
56239;SDS011;42154;51.992;5.896;2023-07-02T08:05:12;10.95;;;4.80;;
56239;SDS011;42154;51.992;5.896;2023-07-02T08:07:38;14.25;;;6.38;;
56239;SDS011;42154;51.992;5.896;2023-07-02T08:10:05;11.68;;;5.25;;
56239;SDS011;42154;51.992;5.896;2023-07-02T08:12:33;10.70;;;5.15;;
56239;SDS011;42154;51.992;5.896;2023-07-02T08:14:59;15.95;;;5.95;;
56239;SDS011;42154;51.992;5.896;2023-07-02T08:17:25;15.02;;;6.35;;
56239;SDS011;42154;51.992;5.896;2023-07-02T08:19:51;10.82;;;4.95;;
56239;SDS011;42154;51.992;5.896;2023-07-02T08:22:17;12.27;;;5.47;;
56239;SDS011;42154;51.992;5.896;2023-07-02T08:24:42;12.43;;;5.25;;
56239;SDS011;42154;51.992;5.896;2023-07-02T08:27:08;12.18;;;5.20;;
56239;SDS011;42154;51.992;5.896;2023-07-02T08:29:35;10.90;;;5.00;;
56239;SDS011;42154;51.992;5.896;2023-07-02T08:32:03;14.50;;;5.05;;
56239;SDS011;42154;51.992;5.896;2023-07-02T08:34:29;11.05;;;4.95;;
56239;SDS011;42154;51.992;5.896;2023-07-02T08:36:55;11.10;;;5.00;;
56239;SDS011;42154;51.992;5.896;2023-07-02T08:39:21;8.35;;;5.07;;
56239;SDS011;42154;51.992;5.896;2023-07-02T08:41:47;9.02;;;4.60;;
56239;SDS011;42154;51.992;5.896;2023-07-02T08:44:14;12.00;;;4.82;;
56239;SDS011;42154;51.992;5.896;2023-07-02T08:46:44;11.18;;;4.43;;
56239;SDS011;42154;51.992;5.896;2023-07-02T08:49:10;10.50;;;4.78;;
56239;SDS011;42154;51.992;5.896;2023-07-02T08:51:36;10.23;;;4.68;;
56239;SDS011;42154;51.992;5.896;2023-07-02T08:54:02;12.32;;;5.13;;
56239;SDS011;42154;51.992;5.896;2023-07-02T08:56:29;7.90;;;4.40;;
56239;SDS011;42154;51.992;5.896;2023-07-02T08:58:55;9.18;;;4.32;;
56239;SDS011;42154;51.992;5.896;2023-07-02T09:01:21;7.93;;;4.85;;
56239;SDS011;42154;51.992;5.896;2023-07-02T09:03:48;11.27;;;4.60;;
56239;SDS011;42154;51.992;5.896;2023-07-02T09:06:16;10.02;;;4.65;;
56239;SDS011;42154;51.992;5.896;2023-07-02T09:08:43;10.43;;;4.72;;
56239;SDS011;42154;51.992;5.896;2023-07-02T09:11:09;12.18;;;4.60;;
56239;SDS011;42154;51.992;5.896;2023-07-02T09:13:50;8.93;;;4.40;;
56239;SDS011;42154;51.992;5.896;2023-07-02T09:16:31;9.75;;;4.43;;
56239;SDS011;42154;51.992;5.896;2023-07-02T09:19:00;12.85;;;5.45;;
56239;SDS011;42154;51.992;5.896;2023-07-02T09:24:11;8.18;;;3.97;;
56239;SDS011;42154;51.992;5.896;2023-07-02T09:29:11;9.20;;;4.18;;
56239;SDS011;42154;51.992;5.896;2023-07-02T09:31:44;8.18;;;3.88;;
56239;SDS011;42154;51.992;5.896;2023-07-02T09:34:13;8.65;;;4.07;;
56239;SDS011;42154;51.992;5.896;2023-07-02T09:36:39;10.55;;;4.45;;
56239;SDS011;42154;51.992;5.896;2023-07-02T09:39:07;8.95;;;4.07;;
56239;SDS011;42154;51.992;5.896;2023-07-02T09:41:36;5.43;;;3.30;;
56239;SDS011;42154;51.992;5.896;2023-07-02T09:44:02;6.70;;;3.63;;
56239;SDS011;42154;51.992;5.896;2023-07-02T09:46:28;7.65;;;3.90;;
56239;SDS011;42154;51.992;5.896;2023-07-02T09:48:55;8.98;;;3.78;;
56239;SDS011;42154;51.992;5.896;2023-07-02T09:51:21;8.30;;;4.28;;
56239;SDS011;42154;51.992;5.896;2023-07-02T09:53:49;8.07;;;3.83;;
56239;SDS011;42154;51.992;5.896;2023-07-02T09:56:16;6.82;;;3.63;;
56239;SDS011;42154;51.992;5.896;2023-07-02T09:58:43;7.82;;;3.40;;
56239;SDS011;42154;51.992;5.896;2023-07-02T10:01:09;9.18;;;3.75;;
56239;SDS011;42154;51.992;5.896;2023-07-02T10:03:35;8.05;;;3.53;;
56239;SDS011;42154;51.992;5.896;2023-07-02T10:06:05;7.43;;;3.80;;
56239;SDS011;42154;51.992;5.896;2023-07-02T10:08:31;6.03;;;3.03;;
56239;SDS011;42154;51.992;5.896;2023-07-02T10:11:07;9.25;;;3.45;;
56239;SDS011;42154;51.992;5.896;2023-07-02T10:13:34;7.65;;;3.67;;
56239;SDS011;42154;51.992;5.896;2023-07-02T10:16:03;8.15;;;3.85;;
56239;SDS011;42154;51.992;5.896;2023-07-02T10:18:30;8.23;;;3.13;;
56239;SDS011;42154;51.992;5.896;2023-07-02T10:20:55;5.35;;;3.08;;
56239;SDS011;42154;51.992;5.896;2023-07-02T10:23:31;6.18;;;2.90;;
56239;SDS011;42154;51.992;5.896;2023-07-02T10:26:16;6.18;;;3.15;;
56239;SDS011;42154;51.992;5.896;2023-07-02T10:28:43;6.28;;;2.55;;
56239;SDS011;42154;51.992;5.896;2023-07-02T10:31:21;8.07;;;3.17;;
56239;SDS011;42154;51.992;5.896;2023-07-02T10:33:47;8.93;;;3.47;;
56239;SDS011;42154;51.992;5.896;2023-07-02T10:36:22;6.68;;;3.30;;
56239;SDS011;42154;51.992;5.896;2023-07-02T10:38:49;8.32;;;3.15;;
56239;SDS011;42154;51.992;5.896;2023-07-02T10:41:28;6.85;;;3.15;;
56239;SDS011;42154;51.992;5.896;2023-07-02T10:44:04;5.43;;;2.70;;
56239;SDS011;42154;51.992;5.896;2023-07-02T10:46:31;5.60;;;3.47;;
56239;SDS011;42154;51.992;5.896;2023-07-02T10:48:57;5.55;;;3.00;;
56239;SDS011;42154;51.992;5.896;2023-07-02T10:51:23;7.32;;;3.22;;
56239;SDS011;42154;51.992;5.896;2023-07-02T10:53:57;6.80;;;3.10;;
56239;SDS011;42154;51.992;5.896;2023-07-02T10:56:27;4.90;;;3.08;;
56239;SDS011;42154;51.992;5.896;2023-07-02T10:58:54;7.72;;;3.42;;
56239;SDS011;42154;51.992;5.896;2023-07-02T11:01:26;6.05;;;3.47;;
56239;SDS011;42154;51.992;5.896;2023-07-02T11:03:57;7.15;;;3.60;;
56239;SDS011;42154;51.992;5.896;2023-07-02T11:06:28;6.07;;;3.22;;
56239;SDS011;42154;51.992;5.896;2023-07-02T11:08:53;7.88;;;3.42;;
56239;SDS011;42154;51.992;5.896;2023-07-02T11:11:20;6.55;;;3.17;;
56239;SDS011;42154;51.992;5.896;2023-07-02T11:13:50;6.13;;;3.00;;
56239;SDS011;42154;51.992;5.896;2023-07-02T11:16:24;5.70;;;3.08;;
56239;SDS011;42154;51.992;5.896;2023-07-02T11:19:06;5.22;;;2.72;;
56239;SDS011;42154;51.992;5.896;2023-07-02T11:21:35;5.47;;;2.83;;
56239;SDS011;42154;51.992;5.896;2023-07-02T11:24:01;8.02;;;3.08;;
56239;SDS011;42154;51.992;5.896;2023-07-02T11:26:37;6.75;;;3.13;;
56239;SDS011;42154;51.992;5.896;2023-07-02T11:29:06;5.15;;;3.08;;
56239;SDS011;42154;51.992;5.896;2023-07-02T11:31:36;4.88;;;2.60;;
56239;SDS011;42154;51.992;5.896;2023-07-02T11:34:10;6.72;;;3.67;;
56239;SDS011;42154;51.992;5.896;2023-07-02T11:36:39;5.43;;;2.50;;
56239;SDS011;42154;51.992;5.896;2023-07-02T11:39:05;3.55;;;2.42;;
56239;SDS011;42154;51.992;5.896;2023-07-02T11:41:37;4.50;;;2.88;;
56239;SDS011;42154;51.992;5.896;2023-07-02T11:44:07;6.15;;;2.72;;
56239;SDS011;42154;51.992;5.896;2023-07-02T11:46:33;5.45;;;2.88;;
56239;SDS011;42154;51.992;5.896;2023-07-02T11:49:03;5.85;;;2.50;;
56239;SDS011;42154;51.992;5.896;2023-07-02T11:51:35;6.68;;;3.42;;
56239;SDS011;42154;51.992;5.896;2023-07-02T11:54:02;5.10;;;2.53;;
56239;SDS011;42154;51.992;5.896;2023-07-02T11:56:29;5.88;;;2.78;;
56239;SDS011;42154;51.992;5.896;2023-07-02T11:58:55;4.20;;;2.45;;
56239;SDS011;42154;51.992;5.896;2023-07-02T12:01:21;5.63;;;2.55;;
56239;SDS011;42154;51.992;5.896;2023-07-02T12:03:47;5.43;;;2.90;;
56239;SDS011;42154;51.992;5.896;2023-07-02T12:06:12;5.25;;;2.92;;
56239;SDS011;42154;51.992;5.896;2023-07-02T12:08:38;6.68;;;3.10;;
56239;SDS011;42154;51.992;5.896;2023-07-02T12:11:04;6.10;;;2.75;;
56239;SDS011;42154;51.992;5.896;2023-07-02T12:13:30;6.15;;;3.00;;
56239;SDS011;42154;51.992;5.896;2023-07-02T12:15:56;6.20;;;2.85;;
56239;SDS011;42154;51.992;5.896;2023-07-02T12:18:21;5.43;;;3.08;;
56239;SDS011;42154;51.992;5.896;2023-07-02T12:20:47;5.82;;;2.67;;
56239;SDS011;42154;51.992;5.896;2023-07-02T12:23:13;5.50;;;2.70;;
56239;SDS011;42154;51.992;5.896;2023-07-02T12:25:39;4.80;;;2.85;;
56239;SDS011;42154;51.992;5.896;2023-07-02T12:28:04;5.63;;;2.80;;
56239;SDS011;42154;51.992;5.896;2023-07-02T12:30:30;5.72;;;2.70;;
56239;SDS011;42154;51.992;5.896;2023-07-02T12:32:56;5.43;;;2.70;;
56239;SDS011;42154;51.992;5.896;2023-07-02T12:35:22;4.90;;;2.97;;
56239;SDS011;42154;51.992;5.896;2023-07-02T12:37:49;5.93;;;2.97;;
56239;SDS011;42154;51.992;5.896;2023-07-02T12:40:17;4.32;;;2.63;;
56239;SDS011;42154;51.992;5.896;2023-07-02T12:42:44;3.60;;;2.53;;
56239;SDS011;42154;51.992;5.896;2023-07-02T12:45:11;5.03;;;2.90;;
56239;SDS011;42154;51.992;5.896;2023-07-02T12:47:38;5.88;;;2.78;;
56239;SDS011;42154;51.992;5.896;2023-07-02T12:50:05;6.13;;;2.80;;
56239;SDS011;42154;51.992;5.896;2023-07-02T12:52:31;6.70;;;3.17;;
56239;SDS011;42154;51.992;5.896;2023-07-02T12:54:57;5.03;;;2.70;;
56239;SDS011;42154;51.992;5.896;2023-07-02T12:57:23;4.85;;;2.53;;
56239;SDS011;42154;51.992;5.896;2023-07-02T12:59:52;5.53;;;2.78;;
56239;SDS011;42154;51.992;5.896;2023-07-02T13:02:21;4.55;;;2.28;;
56239;SDS011;42154;51.992;5.896;2023-07-02T13:04:48;6.03;;;2.83;;
56239;SDS011;42154;51.992;5.896;2023-07-02T13:07:14;4.78;;;2.50;;
56239;SDS011;42154;51.992;5.896;2023-07-02T13:09:40;7.43;;;2.80;;
56239;SDS011;42154;51.992;5.896;2023-07-02T13:12:06;5.63;;;3.08;;
56239;SDS011;42154;51.992;5.896;2023-07-02T13:14:33;7.57;;;2.90;;
56239;SDS011;42154;51.992;5.896;2023-07-02T13:16:59;4.13;;;2.80;;
56239;SDS011;42154;51.992;5.896;2023-07-02T13:19:25;5.13;;;2.78;;
56239;SDS011;42154;51.992;5.896;2023-07-02T13:21:51;4.82;;;2.55;;
56239;SDS011;42154;51.992;5.896;2023-07-02T13:24:17;5.25;;;2.70;;
56239;SDS011;42154;51.992;5.896;2023-07-02T13:26:43;6.97;;;3.03;;
56239;SDS011;42154;51.992;5.896;2023-07-02T13:29:08;7.03;;;3.38;;
56239;SDS011;42154;51.992;5.896;2023-07-02T13:31:34;5.07;;;2.80;;
56239;SDS011;42154;51.992;5.896;2023-07-02T13:34:00;4.47;;;2.83;;
56239;SDS011;42154;51.992;5.896;2023-07-02T13:36:26;5.60;;;2.50;;
56239;SDS011;42154;51.992;5.896;2023-07-02T13:38:53;4.70;;;2.60;;
56239;SDS011;42154;51.992;5.896;2023-07-02T13:41:20;6.90;;;3.05;;
56239;SDS011;42154;51.992;5.896;2023-07-02T13:43:46;4.25;;;2.47;;
56239;SDS011;42154;51.992;5.896;2023-07-02T13:46:12;5.47;;;3.03;;
56239;SDS011;42154;51.992;5.896;2023-07-02T13:48:38;4.40;;;2.50;;
56239;SDS011;42154;51.992;5.896;2023-07-02T13:51:04;6.88;;;3.70;;
56239;SDS011;42154;51.992;5.896;2023-07-02T13:53:30;5.65;;;3.08;;
56239;SDS011;42154;51.992;5.896;2023-07-02T13:55:56;6.70;;;3.08;;
56239;SDS011;42154;51.992;5.896;2023-07-02T13:58:22;5.05;;;2.92;;
56239;SDS011;42154;51.992;5.896;2023-07-02T14:00:48;5.25;;;2.83;;
56239;SDS011;42154;51.992;5.896;2023-07-02T14:03:14;4.82;;;2.95;;
56239;SDS011;42154;51.992;5.896;2023-07-02T14:05:40;7.15;;;2.70;;
56239;SDS011;42154;51.992;5.896;2023-07-02T14:08:06;6.90;;;2.95;;
56239;SDS011;42154;51.992;5.896;2023-07-02T14:10:33;6.50;;;2.80;;
56239;SDS011;42154;51.992;5.896;2023-07-02T14:12:59;6.03;;;3.05;;
56239;SDS011;42154;51.992;5.896;2023-07-02T14:15:24;6.38;;;3.00;;
56239;SDS011;42154;51.992;5.896;2023-07-02T14:17:50;5.00;;;2.67;;
56239;SDS011;42154;51.992;5.896;2023-07-02T14:20:16;9.55;;;3.65;;
56239;SDS011;42154;51.992;5.896;2023-07-02T14:22:42;5.47;;;3.15;;
56239;SDS011;42154;51.992;5.896;2023-07-02T14:25:08;6.05;;;3.28;;
56239;SDS011;42154;51.992;5.896;2023-07-02T14:27:34;5.50;;;3.00;;
56239;SDS011;42154;51.992;5.896;2023-07-02T14:30:00;5.93;;;3.50;;
56239;SDS011;42154;51.992;5.896;2023-07-02T14:32:27;6.03;;;3.38;;
56239;SDS011;42154;51.992;5.896;2023-07-02T14:34:53;7.28;;;3.25;;
56239;SDS011;42154;51.992;5.896;2023-07-02T14:37:19;6.20;;;3.50;;
56239;SDS011;42154;51.992;5.896;2023-07-02T14:39:45;6.65;;;3.33;;
56239;SDS011;42154;51.992;5.896;2023-07-02T14:42:10;8.90;;;3.50;;
56239;SDS011;42154;51.992;5.896;2023-07-02T14:44:36;8.25;;;3.72;;
56239;SDS011;42154;51.992;5.896;2023-07-02T14:47:02;7.43;;;3.08;;
56239;SDS011;42154;51.992;5.896;2023-07-02T14:49:28;6.00;;;2.90;;
56239;SDS011;42154;51.992;5.896;2023-07-02T14:51:54;6.28;;;3.13;;